• Join FlightAware (Why Join?)
  • Login
  • US Flag 
01:04PM EDT


 

Airport Tracker/Info


-or-


 

Live Flight TrackerFlight Track Log ✈ UAL407 ✈ 06-May-2013 ✈ KORD - KPDX

Flight Track Log - Related Links

Times and Time Zones

All times are in EDT time to prevent confusion due to time zone crossing. See the UAL407 flight status page for this flight to view local times or setup timezone preferences in your user account.

Time Position Orientation Groundspeed Altitude Reporting Facility
EDT Latitude Longitude Course Direction KTS MPH feet Rate Location/Type
10:02PM 42.0000 -87.9333 270° West 166 191 1,400  Level Chicago TRACON
10:02PM 42.0333 -87.9667 323° Northwest 196 226 2,900 2,040 Climbing Chicago TRACON
10:04PM 41.9668 -88.5630 270° West  Level FlightAware Approximate
10:04PM 42.1358 -88.0694 323° Northwest 275 316 6,900  Level Chicago Center
10:05PM 41.9667 -88.7288 270° West  Level FlightAware Approximate
10:05PM 42.1419 -88.1761 274° West 288 331 9,900  Level Chicago Center
10:06PM 41.9668 -88.8945 270° West  Level FlightAware Approximate
10:06PM 42.1383 -88.2889 268° West 297 342 11,800  Level Chicago Center
10:07PM 41.9669 -89.0602 270° West  Level FlightAware Approximate
10:07PM 42.1342 -88.4228 268° West 348 400 13,900  Level Chicago Center
10:08PM 42.1319 -88.5553 269° West 356 410 16,100 2,340 Climbing Chicago Center
10:09PM 42.1294 -88.7200 269° West 367 422 18,700 1,800 Climbing Chicago Center
10:10PM 42.1264 -88.8383 268° West 370 426 19,900 1,380 Climbing Chicago Center
10:11PM 42.1219 -89.0119 268° West 392 451 21,600 1,500 Climbing Chicago Center
10:12PM 42.1189 -89.1639 268° West 403 464 23,000 1,260 Climbing Chicago Center
10:13PM 42.1164 -89.3203 269° West 412 474 24,200 1,200 Climbing Chicago Center
10:14PM 42.1142 -89.4800 269° West 420 483 25,500 1,140 Climbing Chicago Center
10:15PM 42.1144 -89.6450 270° West 437 503 26,600 1,020 Climbing Chicago Center
10:16PM 42.1139 -89.8094 270° West 439 505 27,600 1,020 Climbing Chicago Center
10:17PM 42.1156 -89.9933 271° West 447 514 28,700 1,080 Climbing Chicago Center
10:19PM 42.0947 -90.1611 261° West  Level FlightAware Approximate
10:20PM 42.1183 -90.3331 261° West 457 526 30,900  Level Chicago Center
10:21PM 42.1203 -90.5036 271° West 459 528 31,900 960 Climbing Chicago Center
10:22PM 42.1239 -90.6742 272° West 460 529 32,900 900 Climbing Chicago Center
10:23PM 42.1442 -90.8422 279° West 458 527 33,800 540 Climbing Chicago Center
10:24PM 42.1700 -91.0083 282° West 457 526 34,000 60 Climbing Chicago Center
10:25PM 42.1936 -91.1778 281° West 460 529 34,000  Level Chicago Center
10:26PM 42.2236 -91.3803 281° West 461 531 34,000  Level Chicago Center
10:27PM 42.2475 -91.5489 281° West 461 531 34,000  Level Chicago Center
10:28PM 42.2719 -91.7175 281° West 459 528 34,000  Level Chicago Center
10:30PM 42.3297 -92.1236 281° West 460 529 34,000  Level Minneapolis Center
10:31PM 42.3436 -92.2244 281° West 460 529 34,000  Level Chicago Center
10:31PM 42.3533 -92.2939 281° West 461 531 34,000  Level Minneapolis Center
10:32PM 42.3761 -92.4625 280° West 461 531 34,000  Level Minneapolis Center
10:33PM 42.3994 -92.6319 281° West 461 531 34,000  Level Minneapolis Center
10:34PM 42.4217 -92.8019 280° West 462 532 34,000  Level Minneapolis Center
10:35PM 42.4458 -92.9667 281° West 454 522 34,000  Level Minneapolis Center
10:36PM 42.4658 -93.1331 279° West 453 521 34,000  Level Minneapolis Center
10:37PM 42.4869 -93.3047 280° West 462 532 34,000  Level Minneapolis Center
10:38PM 42.5136 -93.5053 280° West 457 526 34,000  Level Minneapolis Center
10:39PM 42.5356 -93.6769 280° West 463 533 34,000  Level Minneapolis Center
10:40PM 42.5558 -93.8486 279° West 465 535 34,000  Level Minneapolis Center
10:41PM 42.5775 -94.0169 280° West 461 531 34,100  Climbing Minneapolis Center
10:42PM 42.5986 -94.1858 280° West 460 529 34,000 -60 Descending Minneapolis Center
10:43PM 42.6358 -94.3492 287° West 458 527 34,000  Level Minneapolis Center
10:44PM 42.6986 -94.5000 300° West 461 531 34,000  Level Minneapolis Center
10:45PM 42.7758 -94.6767 301° West 456 525 34,000  Level Minneapolis Center
10:46PM 42.8400 -94.8267 300° West 458 527 34,000  Level Minneapolis Center
10:47PM 42.9042 -94.9783 300° West 461 531 34,000  Level Minneapolis Center
10:48PM 42.9686 -95.1281 301° West 459 528 34,000  Level Minneapolis Center
10:49PM 43.0333 -95.2794 300° West 460 529 34,000  Level Minneapolis Center
10:50PM 43.0956 -95.4300 300° West 458 527 34,000  Level Minneapolis Center
10:51PM 43.1586 -95.5789 300° West 454 522 34,000  Level Minneapolis Center
10:52PM 43.2206 -95.7256 300° West 449 517 34,000  Level Minneapolis Center
10:53PM 43.2828 -95.8753 300° West 450 518 34,000  Level Minneapolis Center
10:55PM 43.3450 -96.0253 300° West 450 518 34,000  Level Minneapolis Center
10:56PM 43.4067 -96.1778 299° West 454 522 34,000 60 Level Minneapolis Center
10:57PM 43.4808 -96.3608 299° West 456 525 34,200 300 Climbing Minneapolis Center
10:58PM 43.5414 -96.5147 299° West 455 524 34,700 780 Climbing Minneapolis Center
10:59PM 43.6031 -96.6658 299° West 453 521 35,800 600 Climbing Minneapolis Center
11:00PM 43.6628 -96.8183 298° West 452 520 36,000 60 Climbing Minneapolis Center
11:01PM 43.7117 -96.9772 293° West 450 518 36,000  Level Minneapolis Center
11:02PM 43.7611 -97.1358 293° West 450 518 36,000  Level Minneapolis Center
11:03PM 43.8106 -97.2947 293° West 450 518 36,000  Level Minneapolis Center
11:04PM 43.8600 -97.4517 294° West 447 514 36,000  Level Minneapolis Center
11:05PM 43.9089 -97.6108 293° West 448 516 36,000  Level Minneapolis Center
11:06PM 43.9578 -97.7683 293° West 447 514 36,000  Level Minneapolis Center
11:07PM 44.0161 -97.9594 293° West 448 516 36,000  Level Minneapolis Center
11:08PM 44.0653 -98.1192 293° West 449 517 36,000  Level Minneapolis Center
11:09PM 44.1139 -98.2792 293° West 450 518 36,000  Level Minneapolis Center
11:10PM 44.1617 -98.4419 292° West 453 521 36,000  Level Minneapolis Center
11:11PM 44.2100 -98.6047 293° West 455 524 36,000  Level Minneapolis Center
11:12PM 44.2550 -98.7519 293° West 455 524 36,000  Level Minneapolis Center
11:13PM 44.3119 -98.9472 292° West 453 521 36,000  Level Minneapolis Center
11:14PM 44.3597 -99.1108 292° West 453 521 36,000  Level Minneapolis Center
11:15PM 44.4075 -99.2739 292° West 453 521 36,000  Level Minneapolis Center
11:16PM 44.4539 -99.4386 292° West 454 522 36,000  Level Minneapolis Center
11:17PM 44.5000 -99.6036 291° West 453 521 36,000  Level Minneapolis Center
11:18PM 44.5472 -99.7678 292° West 452 520 36,000  Level Minneapolis Center
11:19PM 44.5939 -99.9331 292° West 453 521 36,000  Level Minneapolis Center
11:20PM 44.6400 -100.1000 291° West 454 522 36,000  Level Minneapolis Center
11:21PM 44.6875 -100.2683 292° West 457 526 36,000  Level Minneapolis Center
11:22PM 44.7347 -100.4367 292° West 459 528 36,000  Level Minneapolis Center
11:23PM 44.7797 -100.6039 291° West 457 526 36,000  Level Minneapolis Center
11:24PM 44.8167 -100.7381 291° West 457 526 36,000  Level Minneapolis Center
11:25PM 44.8717 -100.9417 291° West 460 529 36,000  Level Minneapolis Center
11:26PM 44.9192 -101.1108 292° West 463 533 36,000  Level Minneapolis Center
11:27PM 44.9650 -101.2792 291° West 460 529 36,000  Level Minneapolis Center
11:28PM 45.0194 -101.4819 291° West 459 528 36,000  Level Minneapolis Center
11:29PM 45.0728 -101.6861 290° West 461 531 36,000  Level Minneapolis Center
11:30PM 45.1019 -101.8625 283° West 460 529 36,000  Level Minneapolis Center
11:31PM 45.1250 -102.0442 280° West 466 536 36,000  Level Minneapolis Center
11:32PM 45.1483 -102.2258 280° West 469 540 36,000  Level Minneapolis Center
11:33PM 45.1725 -102.4069 281° West 469 540 36,000  Level Minneapolis Center
11:35PM 45.1975 -102.5900 281° West 471 542 36,000  Level Minneapolis Center
11:36PM 45.2200 -102.7722 280° West 471 542 36,000  Level Minneapolis Center
11:37PM 45.2425 -102.9564 280° West 473 544 36,000  Level Minneapolis Center
11:38PM 45.2667 -103.1389 281° West 472 543 36,000 -60 Level Minneapolis Center
11:38PM 45.2819 -103.2767 279° West 474 545 35,900  Descending Salt Lake Center
11:39PM 45.3044 -103.4603 280° West 473 544 36,000  Climbing Salt Lake Center
11:40PM 45.3269 -103.6431 280° West 471 542 36,000 -60 Level Salt Lake Center
11:41PM 45.3483 -103.8264 279° West 472 543 35,900 -60 Descending Salt Lake Center
11:42PM 45.3689 -104.0081 279° West 468 539 35,900  Level Salt Lake Center
11:43PM 45.3903 -104.1919 279° West 471 542 35,900  Level Salt Lake Center
11:44PM 45.4111 -104.3769 279° West 474 545 36,000  Climbing Salt Lake Center
11:45PM 45.4322 -104.5711 279° West 474 545 36,000  Level Salt Lake Center
11:46PM 45.4569 -104.7772 280° West 473 544 36,000  Level Salt Lake Center
11:47PM 45.4750 -104.9511 278° West 467 537 36,000  Level Salt Lake Center
11:48PM 45.4942 -105.1297 279° West 474 545 36,000  Level Salt Lake Center
11:49PM 45.5144 -105.3333 278° West 467 537 36,000  Level Salt Lake Center
11:50PM 45.5339 -105.5086 279° West 468 539 36,000  Level Salt Lake Center
11:51PM 45.5547 -105.7144 278° West 471 542 36,000  Level Salt Lake Center
11:52PM 45.5714 -105.8906 278° West 470 541 36,000  Level Salt Lake Center
11:54PM 45.5892 -106.0689 278° West 474 545 36,000  Level Salt Lake Center
11:55PM 45.6089 -106.2761 278° West 473 544 36,000  Level Salt Lake Center
11:56PM 45.6261 -106.4586 278° West 481 554 36,000  Level Salt Lake Center
11:57PM 45.6406 -106.6364 277° West 476 548 36,000  Level Salt Lake Center
11:58PM 45.6603 -106.8483 278° West 478 550 36,000  Level Salt Lake Center
11:59PM 45.6781 -107.0339 278° West 487 560 36,000  Level Salt Lake Center
12:00AM 45.6975 -107.2525 277° West 494 568 36,000  Level Salt Lake Center
12:01AM 45.7136 -107.4358 277° West 489 563 36,000  Level Salt Lake Center
12:02AM 45.7294 -107.6208 277° West 490 564 36,000  Level Salt Lake Center
12:03AM 45.7478 -107.8375 277° West 490 564 36,000  Level Salt Lake Center
12:04AM 45.7617 -108.0219 276° West 489 563 36,000  Level Salt Lake Center
12:05AM 45.7789 -108.2400 277° West 496 571 36,000  Level Salt Lake Center
12:06AM 45.7931 -108.4253 276° West 492 566 36,000  Level Salt Lake Center
12:07AM 45.8086 -108.6172 277° West 504 580 36,000  Level Salt Lake Center
12:08AM 45.8144 -108.8356 272° West 494 568 36,000  Level Salt Lake Center
12:09AM 45.8200 -109.0214 273° West 490 564 36,000  Level Salt Lake Center
12:10AM 45.8258 -109.2428 272° West 497 572 36,000  Level Salt Lake Center
12:11AM 45.8306 -109.4314 272° West 498 573 36,000  Level Salt Lake Center
12:12AM 45.8350 -109.6225 272° West 500 575 36,000  Level Salt Lake Center
12:13AM 45.8397 -109.8428 272° West 497 572 36,000  Level Salt Lake Center
12:14AM 45.8417 -110.0331 271° West 499 574 36,000  Level Salt Lake Center
12:15AM 45.8464 -110.2225 272° West 498 573 36,000  Level Salt Lake Center
12:16AM 45.8492 -110.4442 271° West 498 573 36,000  Level Salt Lake Center
12:17AM 45.8525 -110.6258 272° West 489 563 36,000  Level Salt Lake Center
12:18AM 45.8550 -110.8222 271° West 492 566 36,000  Level Salt Lake Center
12:19AM 45.8567 -111.0169 271° West 495 570 36,000  Level Salt Lake Center
12:20AM 45.8594 -111.2458 271° West 503 579 36,000  Level Salt Lake Center
12:21AM 45.8594 -111.4403 270° West 496 571 36,000  Level Salt Lake Center
12:22AM 45.8597 -111.6342 270° West 490 564 36,000  Level Salt Lake Center
12:23AM 45.8603 -111.8300 270° West 493 567 36,000  Level Salt Lake Center
12:24AM 45.8608 -112.0244 270° West 489 563 36,000  Level Salt Lake Center
12:25AM 45.8606 -112.2208 270° West 492 566 36,000  Level Salt Lake Center
12:26AM 45.8617 -112.4158 271° West 490 564 36,000  Level Salt Lake Center
12:27AM 45.8619 -112.6111 270° West 490 564 36,000  Level Salt Lake Center
12:28AM 45.8622 -112.8439 270° West 488 562 36,000  Level Salt Lake Center
12:29AM 45.8608 -113.0386 269° West 488 562 36,000  Level Salt Lake Center
12:30AM 45.8611 -113.2328 270° West 489 563 36,000  Level Salt Lake Center
12:31AM 45.8600 -113.4267 270° West 488 562 36,000  Level Salt Lake Center
12:32AM 45.8586 -113.6211 269° West 488 562 36,000  Level Salt Lake Center
12:33AM 45.8592 -113.8117 270° West 490 564 36,000  Level Salt Lake Center
12:34AM 45.8567 -114.0058 269° West 489 563 36,000  Level Salt Lake Center
12:35AM 45.8544 -114.1989 269° West 487 560 36,000  Level Salt Lake Center
12:36AM 45.8517 -114.3975 269° West 486 559 36,000  Level Salt Lake Center
12:37AM 45.8497 -114.6139 269° West 487 560 36,000  Level Salt Lake Center
12:38AM 45.8461 -114.7978 268° West 484 557 36,000  Level Salt Lake Center
12:39AM 45.8419 -115.0119 268° West 483 556 36,000  Level Salt Lake Center
12:40AM 45.8389 -115.1994 269° West 489 563 36,000  Level Salt Lake Center
12:41AM 45.8344 -115.3856 268° West 489 563 36,000  Level Salt Lake Center
12:42AM 45.8294 -115.6033 268° West 491 565 36,000  Level Salt Lake Center
12:43AM 45.8242 -115.7894 268° West 492 566 36,000  Level Salt Lake Center
12:44AM 45.8186 -116.0075 268° West 491 565 36,000  Level Salt Lake Center
12:45AM 45.8128 -116.1936 267° West 490 564 36,000  Level Salt Lake Center
12:46AM 45.8067 -116.3775 267° West 488 562 36,000  Level Salt Lake Center
12:48AM 45.8006 -116.5942 268° West 489 563 36,000  Level Salt Lake Center
12:49AM 45.7936 -116.7786 267° West 487 560 36,000  Level Salt Lake Center
12:50AM 45.7869 -116.9650 267° West 489 563 36,000  Level Salt Lake Center
12:51AM 45.7792 -117.1831 267° West 492 566 36,000  Level Salt Lake Center
12:52AM 45.7719 -117.3700 267° West 492 566 36,000 -360 Level Salt Lake Center
12:53AM 45.7633 -117.5581 266° West 494 568 35,300 -900 Descending Salt Lake Center
12:54AM 45.7550 -117.7742 267° West 489 563 34,200 -660 Descending Salt Lake Center
12:55AM 45.7469 -117.9514 266° West 490 564 34,000 -120 Descending Salt Lake Center
12:56AM 45.7383 -118.1475 266° West 495 570 34,000 -60 Level Salt Lake Center
12:57AM 45.7250 -118.3919 266° West 492 566 33,900  Descending Seattle Center
12:58AM 45.7167 -118.5733 266° West 491 565 34,000  Climbing Seattle Center
12:59AM 45.7064 -118.7667 266° West 490 564 34,000  Level Seattle Center
01:00AM 45.6958 -118.9611 266° West 493 567 34,000  Level Seattle Center
01:01AM 45.6739 -119.1536 261° West 495 570 34,000  Level Seattle Center
01:02AM 45.6481 -119.3833 261° West 493 567 34,000  Level Seattle Center
01:03AM 45.6261 -119.5758 261° West 493 567 34,000  Level Seattle Center
01:04AM 45.6047 -119.7686 261° West 495 570 34,000  Level Seattle Center
01:05AM 45.5817 -119.9603 260° West 495 570 34,000 -360 Level Seattle Center
01:06AM 45.5589 -120.1517 260° West 495 570 33,300 -1,620 Descending Seattle Center
01:07AM 45.5358 -120.3447 260° West 497 572 30,800 -2,460 Descending Seattle Center
01:08AM 45.5119 -120.5400 260° West 502 578 28,400 -2,520 Descending Seattle Center
01:09AM 45.4883 -120.7294 260° West 489 563 25,700 -2,520 Descending Seattle Center
01:10AM 45.4836 -120.9194 268° West 478 550 23,400 -2,400 Descending Seattle Center
01:11AM 45.4794 -121.0978 268° West 453 521 20,900 -2,580 Descending Seattle Center
01:12AM 45.4753 -121.2672 268° West 432 497 18,300 -2,700 Descending Seattle Center
01:12AM 45.4772 -121.3553 272° West 402 463 17,100 -2,460 Descending Seattle Center
01:13AM 45.4733 -121.4214 265° West 392 451 15,800 -2,040 Descending Seattle Center
01:13AM 45.4728 -121.5181 270° West 337 388 14,900 -1,500 Descending Seattle Center
01:14AM 45.4711 -121.5542 266° West 340 391 14,300 -1,980 Descending Seattle Center
01:15AM 45.4833 -121.6403 281° West 307 353 12,900 -1,920 Descending Seattle Center
01:15AM 45.4853 -121.6767 274° West 315 362 12,400 -1,500 Descending Seattle Center
01:16AM 45.4964 -121.7644 280° West 312 359 11,400 -1,620 Descending Seattle Center
01:16AM 45.4986 -121.7969 276° West 308 354 10,800 -2,220 Descending Seattle Center
01:17AM 45.5011 -121.8800 272° West 295 339 9,200 -2,520 Descending Seattle Center
01:17AM 45.4994 -121.9372 268° West 294 338 8,300 -1,800 Descending Seattle Center
01:18AM 45.5025 -121.9906 275° West 279 321 7,400 -1,200 Descending Seattle Center
01:18AM 45.5019 -122.0231 269° West 269 310 7,100 -1,140 Descending Seattle Center
01:19AM 45.5053 -122.0881 274° West 231 266 6,300 -1,320 Descending Seattle Center
01:19AM 45.5081 -122.1200 277° West 254 292 5,800 -1,320 Descending Seattle Center
01:20AM 45.5072 -122.1922 269° West 206 237 4,700 -1,380 Descending Seattle Center
01:20AM 45.5089 -122.2161 276° West 215 247 4,400 -660 Descending Seattle Center
01:21AM 45.5106 -122.2939 272° West 201 231 3,900 -600 Descending Seattle Center
01:22AM 45.5106 -122.3575 270° West 197 227 3,400 -840 Descending Seattle Center
01:23AM 45.5261 -122.4222 289° West 181 208 2,500 -1,020 Descending Seattle Center
01:23AM 45.5331 -122.4342 310° West 186 214 2,200 -1,020 Descending Seattle Center
01:24AM 45.5475 -122.4750 297° West 137 158 1,400 -960 Descending Seattle Center